sensor_id;sensor_type;location;lat;lon;timestamp;temperature;humidity
4739;DHT22;2383;48.632;10.156;2023-09-19T00:01:57;15.80;99.90
4739;DHT22;2383;48.632;10.156;2023-09-19T00:06:00;15.80;99.90
4739;DHT22;2383;48.632;10.156;2023-09-19T00:10:02;15.80;99.90
4739;DHT22;2383;48.632;10.156;2023-09-19T00:14:04;15.80;99.90
4739;DHT22;2383;48.632;10.156;2023-09-19T00:18:10;15.80;99.90
4739;DHT22;2383;48.632;10.156;2023-09-19T00:22:12;15.70;99.90
4739;DHT22;2383;48.632;10.156;2023-09-19T00:26:15;15.70;99.90
4739;DHT22;2383;48.632;10.156;2023-09-19T00:30:21;15.90;99.90
4739;DHT22;2383;48.632;10.156;2023-09-19T00:34:23;15.80;99.90
4739;DHT22;2383;48.632;10.156;2023-09-19T00:38:25;15.40;99.90
4739;DHT22;2383;48.632;10.156;2023-09-19T00:42:29;15.70;99.90
4739;DHT22;2383;48.632;10.156;2023-09-19T00:46:32;15.60;99.90
4739;DHT22;2383;48.632;10.156;2023-09-19T00:50:35;15.90;99.90
4739;DHT22;2383;48.632;10.156;2023-09-19T00:54:37;15.40;99.90
4739;DHT22;2383;48.632;10.156;2023-09-19T00:58:40;15.60;99.90
4739;DHT22;2383;48.632;10.156;2023-09-19T01:02:43;15.70;99.90
4739;DHT22;2383;48.632;10.156;2023-09-19T01:06:47;15.10;99.90
4739;DHT22;2383;48.632;10.156;2023-09-19T01:24:31;15.30;99.90
4739;DHT22;2383;48.632;10.156;2023-09-19T01:28:53;15.40;99.90
4739;DHT22;2383;48.632;10.156;2023-09-19T01:32:56;15.20;99.90
4739;DHT22;2383;48.632;10.156;2023-09-19T01:36:59;15.10;99.90
4739;DHT22;2383;48.632;10.156;2023-09-19T01:41:11;15.40;99.90
4739;DHT22;2383;48.632;10.156;2023-09-19T01:49:55;15.00;99.90
4739;DHT22;2383;48.632;10.156;2023-09-19T01:54:04;15.00;99.90
4739;DHT22;2383;48.632;10.156;2023-09-19T01:58:14;15.00;99.90
4739;DHT22;2383;48.632;10.156;2023-09-19T02:02:18;14.90;99.90
4739;DHT22;2383;48.632;10.156;2023-09-19T02:06:23;15.00;99.90
4739;DHT22;2383;48.632;10.156;2023-09-19T02:10:27;15.30;99.90
4739;DHT22;2383;48.632;10.156;2023-09-19T02:14:29;15.10;99.90
4739;DHT22;2383;48.632;10.156;2023-09-19T02:18:31;15.20;99.90
4739;DHT22;2383;48.632;10.156;2023-09-19T02:22:33;15.10;99.90
4739;DHT22;2383;48.632;10.156;2023-09-19T02:26:35;15.00;99.90
4739;DHT22;2383;48.632;10.156;2023-09-19T02:30:40;15.20;99.90
4739;DHT22;2383;48.632;10.156;2023-09-19T02:34:42;15.20;99.90
4739;DHT22;2383;48.632;10.156;2023-09-19T02:38:45;15.50;99.90
4739;DHT22;2383;48.632;10.156;2023-09-19T02:42:53;15.10;99.90
4739;DHT22;2383;48.632;10.156;2023-09-19T02:46:57;15.00;99.90
4739;DHT22;2383;48.632;10.156;2023-09-19T02:50:59;15.00;99.90
4739;DHT22;2383;48.632;10.156;2023-09-19T02:55:02;15.30;99.90
4739;DHT22;2383;48.632;10.156;2023-09-19T02:59:06;15.50;99.90
4739;DHT22;2383;48.632;10.156;2023-09-19T03:03:08;15.40;99.90
4739;DHT22;2383;48.632;10.156;2023-09-19T03:07:10;15.60;99.90
4739;DHT22;2383;48.632;10.156;2023-09-19T03:11:13;15.70;99.90
4739;DHT22;2383;48.632;10.156;2023-09-19T03:15:19;15.80;99.90
4739;DHT22;2383;48.632;10.156;2023-09-19T03:19:24;15.90;99.90
4739;DHT22;2383;48.632;10.156;2023-09-19T03:23:29;15.50;99.90
4739;DHT22;2383;48.632;10.156;2023-09-19T03:27:31;15.40;99.90
4739;DHT22;2383;48.632;10.156;2023-09-19T03:31:33;15.40;99.90
4739;DHT22;2383;48.632;10.156;2023-09-19T03:35:42;15.60;99.90
4739;DHT22;2383;48.632;10.156;2023-09-19T03:39:46;15.60;99.90
4739;DHT22;2383;48.632;10.156;2023-09-19T03:43:48;15.60;99.90
4739;DHT22;2383;48.632;10.156;2023-09-19T03:47:51;15.30;99.90
4739;DHT22;2383;48.632;10.156;2023-09-19T03:51:55;15.20;99.90
4739;DHT22;2383;48.632;10.156;2023-09-19T03:55:58;15.30;99.90
4739;DHT22;2383;48.632;10.156;2023-09-19T04:00:03;15.20;99.90
4739;DHT22;2383;48.632;10.156;2023-09-19T04:04:13;15.50;99.90
4739;DHT22;2383;48.632;10.156;2023-09-19T04:08:16;15.50;99.90
4739;DHT22;2383;48.632;10.156;2023-09-19T04:12:18;15.40;99.90
4739;DHT22;2383;48.632;10.156;2023-09-19T04:16:20;15.60;99.90
4739;DHT22;2383;48.632;10.156;2023-09-19T04:20:21;15.60;99.90
4739;DHT22;2383;48.632;10.156;2023-09-19T04:24:26;15.60;99.90
4739;DHT22;2383;48.632;10.156;2023-09-19T04:28:29;15.50;99.90
4739;DHT22;2383;48.632;10.156;2023-09-19T04:32:31;15.20;99.90
4739;DHT22;2383;48.632;10.156;2023-09-19T04:36:34;15.50;99.90
4739;DHT22;2383;48.632;10.156;2023-09-19T04:40:38;15.80;99.90
4739;DHT22;2383;48.632;10.156;2023-09-19T04:44:41;15.30;99.90
4739;DHT22;2383;48.632;10.156;2023-09-19T04:48:44;15.30;99.90
4739;DHT22;2383;48.632;10.156;2023-09-19T04:52:49;15.40;99.90
4739;DHT22;2383;48.632;10.156;2023-09-19T04:56:52;15.40;99.90
4739;DHT22;2383;48.632;10.156;2023-09-19T05:00:54;15.30;99.90
4739;DHT22;2383;48.632;10.156;2023-09-19T05:04:58;15.50;99.90
4739;DHT22;2383;48.632;10.156;2023-09-19T05:09:01;15.70;99.90
4739;DHT22;2383;48.632;10.156;2023-09-19T05:13:04;15.80;99.90
4739;DHT22;2383;48.632;10.156;2023-09-19T05:17:06;16.00;99.90
4739;DHT22;2383;48.632;10.156;2023-09-19T05:21:09;15.70;99.90
4739;DHT22;2383;48.632;10.156;2023-09-19T05:25:11;15.70;99.90
4739;DHT22;2383;48.632;10.156;2023-09-19T05:29:18;15.80;99.90
4739;DHT22;2383;48.632;10.156;2023-09-19T05:33:20;16.00;99.90
4739;DHT22;2383;48.632;10.156;2023-09-19T05:37:22;15.90;99.90
4739;DHT22;2383;48.632;10.156;2023-09-19T05:41:25;16.10;99.90
4739;DHT22;2383;48.632;10.156;2023-09-19T05:45:27;15.60;99.90
4739;DHT22;2383;48.632;10.156;2023-09-19T05:49:29;15.60;99.90
4739;DHT22;2383;48.632;10.156;2023-09-19T05:53:31;15.70;99.90
4739;DHT22;2383;48.632;10.156;2023-09-19T05:57:34;15.80;99.90
4739;DHT22;2383;48.632;10.156;2023-09-19T06:01:36;15.70;99.90
4739;DHT22;2383;48.632;10.156;2023-09-19T06:05:38;15.80;99.90
4739;DHT22;2383;48.632;10.156;2023-09-19T06:09:43;15.60;99.90
4739;DHT22;2383;48.632;10.156;2023-09-19T06:13:45;15.80;99.90
4739;DHT22;2383;48.632;10.156;2023-09-19T06:17:51;15.90;99.90
4739;DHT22;2383;48.632;10.156;2023-09-19T06:21:53;16.00;99.90
4739;DHT22;2383;48.632;10.156;2023-09-19T06:25:55;16.10;99.90
4739;DHT22;2383;48.632;10.156;2023-09-19T06:29:58;16.00;99.90
4739;DHT22;2383;48.632;10.156;2023-09-19T06:34:00;16.20;99.90
4739;DHT22;2383;48.632;10.156;2023-09-19T06:38:03;16.40;99.90
4739;DHT22;2383;48.632;10.156;2023-09-19T06:42:06;16.00;99.90
4739;DHT22;2383;48.632;10.156;2023-09-19T06:46:09;15.90;99.90
4739;DHT22;2383;48.632;10.156;2023-09-19T06:50:12;16.10;99.90
4739;DHT22;2383;48.632;10.156;2023-09-19T06:54:17;16.10;99.90
4739;DHT22;2383;48.632;10.156;2023-09-19T06:58:19;16.10;99.90
4739;DHT22;2383;48.632;10.156;2023-09-19T07:02:22;16.20;99.90
4739;DHT22;2383;48.632;10.156;2023-09-19T07:06:24;16.00;99.90
4739;DHT22;2383;48.632;10.156;2023-09-19T07:10:27;16.10;99.90
4739;DHT22;2383;48.632;10.156;2023-09-19T07:14:30;16.50;99.90
4739;DHT22;2383;48.632;10.156;2023-09-19T07:18:32;16.60;99.90
4739;DHT22;2383;48.632;10.156;2023-09-19T07:22:34;17.00;99.90
4739;DHT22;2383;48.632;10.156;2023-09-19T07:26:36;16.40;99.90
4739;DHT22;2383;48.632;10.156;2023-09-19T07:30:39;16.40;99.90
4739;DHT22;2383;48.632;10.156;2023-09-19T07:34:41;16.10;99.90
4739;DHT22;2383;48.632;10.156;2023-09-19T07:38:43;16.40;99.90
4739;DHT22;2383;48.632;10.156;2023-09-19T07:42:45;16.00;99.90
4739;DHT22;2383;48.632;10.156;2023-09-19T07:46:48;15.70;99.90
4739;DHT22;2383;48.632;10.156;2023-09-19T07:50:52;15.10;99.90
4739;DHT22;2383;48.632;10.156;2023-09-19T07:54:55;14.10;99.90
4739;DHT22;2383;48.632;10.156;2023-09-19T07:58:59;14.10;99.90
4739;DHT22;2383;48.632;10.156;2023-09-19T08:03:01;13.90;99.90
4739;DHT22;2383;48.632;10.156;2023-09-19T08:07:15;14.20;99.90
4739;DHT22;2383;48.632;10.156;2023-09-19T08:11:17;13.70;99.90
4739;DHT22;2383;48.632;10.156;2023-09-19T08:15:23;14.00;99.90
4739;DHT22;2383;48.632;10.156;2023-09-19T08:19:25;14.00;99.90
4739;DHT22;2383;48.632;10.156;2023-09-19T08:23:30;14.50;99.90
4739;DHT22;2383;48.632;10.156;2023-09-19T08:27:34;14.80;99.90
4739;DHT22;2383;48.632;10.156;2023-09-19T08:31:38;14.80;99.90
4739;DHT22;2383;48.632;10.156;2023-09-19T08:35:40;14.40;99.90
4739;DHT22;2383;48.632;10.156;2023-09-19T08:39:44;15.00;99.90
4739;DHT22;2383;48.632;10.156;2023-09-19T08:43:46;14.50;99.90
4739;DHT22;2383;48.632;10.156;2023-09-19T08:48:22;15.50;99.90
4739;DHT22;2383;48.632;10.156;2023-09-19T08:52:36;14.90;99.90
4739;DHT22;2383;48.632;10.156;2023-09-19T08:56:40;15.10;99.90
4739;DHT22;2383;48.632;10.156;2023-09-19T09:00:45;15.20;99.90
4739;DHT22;2383;48.632;10.156;2023-09-19T09:04:49;15.10;99.90
4739;DHT22;2383;48.632;10.156;2023-09-19T09:08:52;14.90;99.90
4739;DHT22;2383;48.632;10.156;2023-09-19T09:12:54;14.90;99.90
4739;DHT22;2383;48.632;10.156;2023-09-19T09:16:56;14.70;99.90
4739;DHT22;2383;48.632;10.156;2023-09-19T09:21:01;14.60;99.90
4739;DHT22;2383;48.632;10.156;2023-09-19T09:25:03;14.90;99.90
4739;DHT22;2383;48.632;10.156;2023-09-19T09:29:06;14.80;99.90
4739;DHT22;2383;48.632;10.156;2023-09-19T09:33:13;14.60;99.90
4739;DHT22;2383;48.632;10.156;2023-09-19T09:37:19;14.90;99.90
4739;DHT22;2383;48.632;10.156;2023-09-19T09:41:36;14.80;99.90
4739;DHT22;2383;48.632;10.156;2023-09-19T09:45:39;14.90;99.90
4739;DHT22;2383;48.632;10.156;2023-09-19T09:49:50;15.40;99.90
4739;DHT22;2383;48.632;10.156;2023-09-19T09:54:13;15.10;99.90
4739;DHT22;2383;48.632;10.156;2023-09-19T09:58:18;15.10;99.90
4739;DHT22;2383;48.632;10.156;2023-09-19T10:02:25;14.70;99.90
4739;DHT22;2383;48.632;10.156;2023-09-19T10:06:40;14.50;99.90
4739;DHT22;2383;48.632;10.156;2023-09-19T10:10:48;15.30;99.90
4739;DHT22;2383;48.632;10.156;2023-09-19T10:15:06;15.30;99.90
4739;DHT22;2383;48.632;10.156;2023-09-19T10:19:09;15.20;99.90
4739;DHT22;2383;48.632;10.156;2023-09-19T10:23:12;15.40;99.90
4739;DHT22;2383;48.632;10.156;2023-09-19T10:27:16;15.00;99.90
4739;DHT22;2383;48.632;10.156;2023-09-19T10:31:22;14.30;99.90
4739;DHT22;2383;48.632;10.156;2023-09-19T10:35:28;14.90;99.90
4739;DHT22;2383;48.632;10.156;2023-09-19T10:39:30;15.50;99.90
4739;DHT22;2383;48.632;10.156;2023-09-19T10:43:33;15.30;99.90
4739;DHT22;2383;48.632;10.156;2023-09-19T10:47:38;15.80;99.90
4739;DHT22;2383;48.632;10.156;2023-09-19T10:51:42;16.10;99.90
4739;DHT22;2383;48.632;10.156;2023-09-19T10:55:59;16.70;99.90
4739;DHT22;2383;48.632;10.156;2023-09-19T11:00:08;16.60;99.90
4739;DHT22;2383;48.632;10.156;2023-09-19T11:04:38;16.70;99.90
4739;DHT22;2383;48.632;10.156;2023-09-19T11:09:11;16.20;99.90
4739;DHT22;2383;48.632;10.156;2023-09-19T11:13:27;16.20;99.90
4739;DHT22;2383;48.632;10.156;2023-09-19T11:17:35;15.60;99.90
4739;DHT22;2383;48.632;10.156;2023-09-19T11:21:39;15.20;99.90
4739;DHT22;2383;48.632;10.156;2023-09-19T11:25:44;15.10;99.90
4739;DHT22;2383;48.632;10.156;2023-09-19T11:34:47;15.80;99.90
4739;DHT22;2383;48.632;10.156;2023-09-19T11:42:55;16.40;99.90
4739;DHT22;2383;48.632;10.156;2023-09-19T11:46:59;16.00;99.90
4739;DHT22;2383;48.632;10.156;2023-09-19T11:51:10;16.10;99.90
4739;DHT22;2383;48.632;10.156;2023-09-19T11:55:17;15.70;99.90
4739;DHT22;2383;48.632;10.156;2023-09-19T11:59:23;15.70;99.90
4739;DHT22;2383;48.632;10.156;2023-09-19T12:03:29;16.20;99.90
4739;DHT22;2383;48.632;10.156;2023-09-19T12:07:42;16.20;99.90
4739;DHT22;2383;48.632;10.156;2023-09-19T12:11:47;17.00;99.90
4739;DHT22;2383;48.632;10.156;2023-09-19T12:15:51;17.80;99.60
4739;DHT22;2383;48.632;10.156;2023-09-19T12:19:55;17.90;99.80
4739;DHT22;2383;48.632;10.156;2023-09-19T12:24:05;17.70;99.30
4739;DHT22;2383;48.632;10.156;2023-09-19T12:28:07;17.00;97.50
4739;DHT22;2383;48.632;10.156;2023-09-19T12:32:11;16.80;97.10
4739;DHT22;2383;48.632;10.156;2023-09-19T12:36:24;17.00;98.50
4739;DHT22;2383;48.632;10.156;2023-09-19T12:40:36;17.30;97.50
4739;DHT22;2383;48.632;10.156;2023-09-19T12:44:42;17.40;97.90
4739;DHT22;2383;48.632;10.156;2023-09-19T12:48:44;17.80;97.50
4739;DHT22;2383;48.632;10.156;2023-09-19T12:52:50;17.90;97.30
4739;DHT22;2383;48.632;10.156;2023-09-19T12:56:52;17.10;96.50
4739;DHT22;2383;48.632;10.156;2023-09-19T13:00:56;17.00;96.20
4739;DHT22;2383;48.632;10.156;2023-09-19T13:04:58;17.50;95.50
4739;DHT22;2383;48.632;10.156;2023-09-19T13:09:11;17.40;96.10
4739;DHT22;2383;48.632;10.156;2023-09-19T13:13:23;17.40;96.50
4739;DHT22;2383;48.632;10.156;2023-09-19T13:17:43;16.90;96.50
4739;DHT22;2383;48.632;10.156;2023-09-19T13:21:45;17.60;96.50
4739;DHT22;2383;48.632;10.156;2023-09-19T13:25:51;17.60;96.10
4739;DHT22;2383;48.632;10.156;2023-09-19T13:29:53;18.00;96.00
4739;DHT22;2383;48.632;10.156;2023-09-19T13:33:55;18.20;95.90
4739;DHT22;2383;48.632;10.156;2023-09-19T13:37:57;18.10;95.80
4739;DHT22;2383;48.632;10.156;2023-09-19T13:41:59;17.80;95.60
4739;DHT22;2383;48.632;10.156;2023-09-19T13:46:01;18.20;96.30
4739;DHT22;2383;48.632;10.156;2023-09-19T13:50:04;18.30;95.50
4739;DHT22;2383;48.632;10.156;2023-09-19T13:54:07;18.10;96.00
4739;DHT22;2383;48.632;10.156;2023-09-19T13:58:10;18.30;95.40
4739;DHT22;2383;48.632;10.156;2023-09-19T14:02:13;17.90;95.30
4739;DHT22;2383;48.632;10.156;2023-09-19T14:06:16;17.80;95.00
4739;DHT22;2383;48.632;10.156;2023-09-19T14:10:18;17.60;95.00
4739;DHT22;2383;48.632;10.156;2023-09-19T14:14:20;18.20;95.70
4739;DHT22;2383;48.632;10.156;2023-09-19T14:18:23;17.70;95.30
4739;DHT22;2383;48.632;10.156;2023-09-19T14:22:25;18.00;94.90
4739;DHT22;2383;48.632;10.156;2023-09-19T14:26:27;18.20;94.10
4739;DHT22;2383;48.632;10.156;2023-09-19T14:30:29;17.60;95.10
4739;DHT22;2383;48.632;10.156;2023-09-19T14:34:31;17.70;94.60
4739;DHT22;2383;48.632;10.156;2023-09-19T14:38:34;18.20;94.40
4739;DHT22;2383;48.632;10.156;2023-09-19T14:42:39;18.30;94.70
4739;DHT22;2383;48.632;10.156;2023-09-19T14:46:42;18.60;94.10
4739;DHT22;2383;48.632;10.156;2023-09-19T14:50:46;17.70;94.00
4739;DHT22;2383;48.632;10.156;2023-09-19T14:54:52;18.30;94.90
4739;DHT22;2383;48.632;10.156;2023-09-19T14:58:54;18.70;95.00
4739;DHT22;2383;48.632;10.156;2023-09-19T15:02:56;18.40;94.40
4739;DHT22;2383;48.632;10.156;2023-09-19T15:06:59;19.00;93.70
4739;DHT22;2383;48.632;10.156;2023-09-19T15:11:02;18.30;93.70
4739;DHT22;2383;48.632;10.156;2023-09-19T15:15:07;18.60;93.60
4739;DHT22;2383;48.632;10.156;2023-09-19T15:19:10;18.60;93.40
4739;DHT22;2383;48.632;10.156;2023-09-19T15:23:12;18.70;93.30
4739;DHT22;2383;48.632;10.156;2023-09-19T15:27:15;18.70;93.50
4739;DHT22;2383;48.632;10.156;2023-09-19T15:31:18;18.60;94.00
4739;DHT22;2383;48.632;10.156;2023-09-19T15:35:21;18.80;93.30
4739;DHT22;2383;48.632;10.156;2023-09-19T15:39:23;18.40;93.60
4739;DHT22;2383;48.632;10.156;2023-09-19T15:43:26;18.70;93.70
4739;DHT22;2383;48.632;10.156;2023-09-19T15:47:29;18.50;94.10
4739;DHT22;2383;48.632;10.156;2023-09-19T15:51:31;19.20;94.00
4739;DHT22;2383;48.632;10.156;2023-09-19T15:55:38;18.90;93.30
4739;DHT22;2383;48.632;10.156;2023-09-19T15:59:41;19.10;93.10
4739;DHT22;2383;48.632;10.156;2023-09-19T16:03:47;19.50;93.80
4739;DHT22;2383;48.632;10.156;2023-09-19T16:07:49;19.70;93.30
4739;DHT22;2383;48.632;10.156;2023-09-19T16:11:51;19.80;93.00
4739;DHT22;2383;48.632;10.156;2023-09-19T16:15:52;19.30;92.90
4739;DHT22;2383;48.632;10.156;2023-09-19T16:19:54;19.30;93.00
4739;DHT22;2383;48.632;10.156;2023-09-19T16:23:58;18.80;93.40
4739;DHT22;2383;48.632;10.156;2023-09-19T16:28:00;18.70;93.80
4739;DHT22;2383;48.632;10.156;2023-09-19T16:32:02;19.10;93.70
4739;DHT22;2383;48.632;10.156;2023-09-19T16:36:15;19.10;93.60
4739;DHT22;2383;48.632;10.156;2023-09-19T16:40:17;19.10;94.00
4739;DHT22;2383;48.632;10.156;2023-09-19T16:44:20;19.10;93.80
4739;DHT22;2383;48.632;10.156;2023-09-19T16:48:27;18.40;94.80
4739;DHT22;2383;48.632;10.156;2023-09-19T16:52:29;18.80;94.80
4739;DHT22;2383;48.632;10.156;2023-09-19T16:56:31;18.60;94.70
4739;DHT22;2383;48.632;10.156;2023-09-19T17:00:36;18.60;95.30
4739;DHT22;2383;48.632;10.156;2023-09-19T17:04:38;18.60;95.20
4739;DHT22;2383;48.632;10.156;2023-09-19T17:08:41;18.60;95.20
4739;DHT22;2383;48.632;10.156;2023-09-19T17:12:45;18.60;95.70
4739;DHT22;2383;48.632;10.156;2023-09-19T17:16:47;18.80;96.50
4739;DHT22;2383;48.632;10.156;2023-09-19T17:20:50;18.80;97.00
4739;DHT22;2383;48.632;10.156;2023-09-19T17:24:52;18.80;96.90
4739;DHT22;2383;48.632;10.156;2023-09-19T17:28:54;18.70;97.30
4739;DHT22;2383;48.632;10.156;2023-09-19T17:32:58;18.60;97.70
4739;DHT22;2383;48.632;10.156;2023-09-19T17:37:01;18.50;98.10
4739;DHT22;2383;48.632;10.156;2023-09-19T17:41:04;18.40;98.20
4739;DHT22;2383;48.632;10.156;2023-09-19T17:45:06;18.30;98.60
4739;DHT22;2383;48.632;10.156;2023-09-19T17:49:09;18.20;98.60
4739;DHT22;2383;48.632;10.156;2023-09-19T17:53:13;18.00;98.80
4739;DHT22;2383;48.632;10.156;2023-09-19T17:57:15;17.80;98.50
4739;DHT22;2383;48.632;10.156;2023-09-19T18:01:18;17.80;98.50
4739;DHT22;2383;48.632;10.156;2023-09-19T18:05:31;17.60;98.80
4739;DHT22;2383;48.632;10.156;2023-09-19T18:09:33;17.50;99.10
4739;DHT22;2383;48.632;10.156;2023-09-19T18:13:35;17.50;99.40
4739;DHT22;2383;48.632;10.156;2023-09-19T18:17:37;17.40;99.50
4739;DHT22;2383;48.632;10.156;2023-09-19T18:21:40;17.40;99.50
4739;DHT22;2383;48.632;10.156;2023-09-19T18:25:45;17.30;99.60
4739;DHT22;2383;48.632;10.156;2023-09-19T18:29:49;17.30;99.80
4739;DHT22;2383;48.632;10.156;2023-09-19T18:33:53;17.20;99.90
4739;DHT22;2383;48.632;10.156;2023-09-19T18:37:56;17.00;99.90
4739;DHT22;2383;48.632;10.156;2023-09-19T18:41:59;16.70;99.90
4739;DHT22;2383;48.632;10.156;2023-09-19T18:46:00;16.50;99.90
4739;DHT22;2383;48.632;10.156;2023-09-19T18:50:03;16.30;99.90
4739;DHT22;2383;48.632;10.156;2023-09-19T18:54:06;16.40;99.90
4739;DHT22;2383;48.632;10.156;2023-09-19T18:58:14;16.50;99.90
4739;DHT22;2383;48.632;10.156;2023-09-19T19:02:16;16.50;99.90
4739;DHT22;2383;48.632;10.156;2023-09-19T19:06:18;16.50;99.90
4739;DHT22;2383;48.632;10.156;2023-09-19T19:10:20;16.30;99.90
4739;DHT22;2383;48.632;10.156;2023-09-19T19:14:22;16.30;99.90
4739;DHT22;2383;48.632;10.156;2023-09-19T19:18:25;16.10;99.90
4739;DHT22;2383;48.632;10.156;2023-09-19T19:22:30;15.60;99.90
4739;DHT22;2383;48.632;10.156;2023-09-19T19:26:33;15.70;99.90
4739;DHT22;2383;48.632;10.156;2023-09-19T19:30:43;15.50;99.90
4739;DHT22;2383;48.632;10.156;2023-09-19T19:34:45;15.60;99.90
4739;DHT22;2383;48.632;10.156;2023-09-19T19:38:47;15.60;99.90
4739;DHT22;2383;48.632;10.156;2023-09-19T19:42:50;14.40;99.90
4739;DHT22;2383;48.632;10.156;2023-09-19T19:46:52;14.20;99.90
4739;DHT22;2383;48.632;10.156;2023-09-19T19:50:54;14.70;99.90
4739;DHT22;2383;48.632;10.156;2023-09-19T19:54:56;14.90;99.90
4739;DHT22;2383;48.632;10.156;2023-09-19T19:58:59;15.20;99.90
4739;DHT22;2383;48.632;10.156;2023-09-19T20:03:01;15.30;99.90
4739;DHT22;2383;48.632;10.156;2023-09-19T20:07:05;15.30;99.90
4739;DHT22;2383;48.632;10.156;2023-09-19T20:11:07;15.30;99.90
4739;DHT22;2383;48.632;10.156;2023-09-19T20:15:11;14.90;99.90
4739;DHT22;2383;48.632;10.156;2023-09-19T20:19:13;13.80;99.90
4739;DHT22;2383;48.632;10.156;2023-09-19T20:23:15;13.80;99.90
4739;DHT22;2383;48.632;10.156;2023-09-19T20:27:20;14.20;99.90
4739;DHT22;2383;48.632;10.156;2023-09-19T20:31:22;14.60;99.90
4739;DHT22;2383;48.632;10.156;2023-09-19T20:35:26;14.30;99.90
4739;DHT22;2383;48.632;10.156;2023-09-19T20:39:29;14.70;99.90
4739;DHT22;2383;48.632;10.156;2023-09-19T20:43:31;14.70;99.90
4739;DHT22;2383;48.632;10.156;2023-09-19T20:47:35;14.80;99.90
4739;DHT22;2383;48.632;10.156;2023-09-19T20:51:39;14.80;99.90
4739;DHT22;2383;48.632;10.156;2023-09-19T20:55:41;14.90;99.90
4739;DHT22;2383;48.632;10.156;2023-09-19T20:59:43;14.80;99.90
4739;DHT22;2383;48.632;10.156;2023-09-19T21:03:45;14.60;99.90
4739;DHT22;2383;48.632;10.156;2023-09-19T21:07:48;14.10;99.90
4739;DHT22;2383;48.632;10.156;2023-09-19T21:11:49;14.30;99.90
4739;DHT22;2383;48.632;10.156;2023-09-19T21:15:51;14.50;99.90
4739;DHT22;2383;48.632;10.156;2023-09-19T21:19:53;14.40;99.90
4739;DHT22;2383;48.632;10.156;2023-09-19T21:23:55;14.30;99.90
4739;DHT22;2383;48.632;10.156;2023-09-19T21:27:57;14.20;99.90
4739;DHT22;2383;48.632;10.156;2023-09-19T21:32:00;14.10;99.90
4739;DHT22;2383;48.632;10.156;2023-09-19T21:36:06;14.10;99.90
4739;DHT22;2383;48.632;10.156;2023-09-19T21:40:11;14.20;99.90
4739;DHT22;2383;48.632;10.156;2023-09-19T21:44:14;14.20;99.90
4739;DHT22;2383;48.632;10.156;2023-09-19T21:48:15;14.30;99.90
4739;DHT22;2383;48.632;10.156;2023-09-19T21:52:17;14.30;99.90
4739;DHT22;2383;48.632;10.156;2023-09-19T21:56:20;14.20;99.90
4739;DHT22;2383;48.632;10.156;2023-09-19T22:00:24;14.20;99.90
4739;DHT22;2383;48.632;10.156;2023-09-19T22:04:35;13.80;99.90
4739;DHT22;2383;48.632;10.156;2023-09-19T22:08:38;13.60;99.90
4739;DHT22;2383;48.632;10.156;2023-09-19T22:12:40;13.70;99.90
4739;DHT22;2383;48.632;10.156;2023-09-19T22:16:42;13.80;99.90
4739;DHT22;2383;48.632;10.156;2023-09-19T22:20:45;14.20;99.90
4739;DHT22;2383;48.632;10.156;2023-09-19T22:25:00;13.90;99.90
4739;DHT22;2383;48.632;10.156;2023-09-19T22:29:04;13.60;99.90
4739;DHT22;2383;48.632;10.156;2023-09-19T22:33:07;12.90;99.90
4739;DHT22;2383;48.632;10.156;2023-09-19T22:37:12;12.90;99.90
4739;DHT22;2383;48.632;10.156;2023-09-19T22:41:14;13.00;99.90
4739;DHT22;2383;48.632;10.156;2023-09-19T22:45:18;12.80;99.90
4739;DHT22;2383;48.632;10.156;2023-09-19T22:49:21;12.80;99.90
4739;DHT22;2383;48.632;10.156;2023-09-19T22:53:25;12.30;99.90
4739;DHT22;2383;48.632;10.156;2023-09-19T22:57:29;12.80;99.90
4739;DHT22;2383;48.632;10.156;2023-09-19T23:01:31;13.00;99.90
4739;DHT22;2383;48.632;10.156;2023-09-19T23:05:43;13.20;99.90
4739;DHT22;2383;48.632;10.156;2023-09-19T23:09:46;13.30;99.90
4739;DHT22;2383;48.632;10.156;2023-09-19T23:13:50;13.60;99.90
4739;DHT22;2383;48.632;10.156;2023-09-19T23:17:53;13.30;99.90
4739;DHT22;2383;48.632;10.156;2023-09-19T23:21:56;13.30;99.90
4739;DHT22;2383;48.632;10.156;2023-09-19T23:26:05;13.20;99.90
4739;DHT22;2383;48.632;10.156;2023-09-19T23:30:08;12.80;99.90
4739;DHT22;2383;48.632;10.156;2023-09-19T23:34:11;12.70;99.90
4739;DHT22;2383;48.632;10.156;2023-09-19T23:38:14;12.50;99.90
4739;DHT22;2383;48.632;10.156;2023-09-19T23:42:16;12.60;99.90
4739;DHT22;2383;48.632;10.156;2023-09-19T23:46:21;12.80;99.90
4739;DHT22;2383;48.632;10.156;2023-09-19T23:50:27;12.80;99.90
4739;DHT22;2383;48.632;10.156;2023-09-19T23:54:31;13.30;99.90
4739;DHT22;2383;48.632;10.156;2023-09-19T23:58:36;13.00;99.90
